PWSweather.com
Personal Weather Stations
Station Observations
WEATHERMOR
MorskoSI

MorskoSI

Lat: 46.075894, Lon: 13.634103

Elevation: 149

Station Type: WS2350

http://vp-morskovreme.com

Latest ConditionsUpdated 10:20:00 PM GMT+01:01 Thursday, Sep 21, 2017
Currently Today's Max Today's Min Today's Average
Temperature 52.5°F11.4°C 71.1°F21.7°C 46.0°F7.8°C 56.4°F13.6°C
Dew Point 48.5°F9.2°C 58.5°F14.7°C 43.8°F6.6°C 49.8°F9.9°C
Winds 0.2 mph ENE0.3 kmh ENE 4.6 mph SW7.4 kmh SW - 1.9 mph 3.1 kmh
Wind Gusts 1.6 mph2.6 kmh 11.9 mph19.2 kmh - -
Humidity 86% 93% 52% 80%
Pressure 30.15 in1021.0 mb 30.15 in1021.0 mb 30.08 in1018.6 mb -
Hour Temp Dew Point Humidity Winds Wind Gusts Pressure Precip Precip Rate Daily Precip Total
10:20 PM 52.5°F11.4°C 48.5°F9.2°C 86% 0.2 mph ENE0.3 kmh ENE 1.6 mph2.6 kmh 30.15 in1021.0 mb 0.00 in0.0 mm 0.00 in0.0 mm 0.00 in0.0 mm
10:10 PM 52.7°F11.5°C 48.6°F9.2°C 86% Calm Calm 0.9 mph1.4 kmh 30.15 in1021.0 mb 0.00 in0.0 mm 0.00 in0.0 mm 0.00 in0.0 mm
10:00 PM 52.9°F11.6°C 48.8°F9.3°C 86% Calm Calm -- 30.14 in1020.7 mb 0.00 in0.0 mm 0.00 in0.0 mm 0.00 in0.0 mm
09:50 PM 53.2°F11.8°C 49.2°F9.6°C 86% Calm Calm -- 30.14 in1020.7 mb 0.00 in0.0 mm 0.00 in0.0 mm 0.00 in0.0 mm
09:40 PM 53.4°F11.9°C 49.3°F9.6°C 86% Calm Calm 0.7 mph1.1 kmh 30.14 in1020.7 mb 0.00 in0.0 mm 0.00 in0.0 mm 0.00 in0.0 mm
09:30 PM 53.8°F12.1°C 49.4°F9.7°C 85% 0.2 mph SSE0.3 kmh SSE 2.2 mph3.5 kmh 30.15 in1021.0 mb 0.00 in0.0 mm 0.00 in0.0 mm 0.00 in0.0 mm
09:20 PM 54.1°F12.3°C 49.7°F9.8°C 85% 0.3 mph SSW0.5 kmh SSW 2.0 mph3.2 kmh 30.14 in1020.7 mb 0.00 in0.0 mm 0.00 in0.0 mm 0.00 in0.0 mm
09:10 PM 54.3°F12.4°C 49.9°F9.9°C 85% Calm Calm -- 30.14 in1020.7 mb 0.00 in0.0 mm 0.00 in0.0 mm 0.00 in0.0 mm
09:00 PM 54.7°F12.6°C 50.3°F10.2°C 85% 0.1 mph NE0.2 kmh NE 0.9 mph1.4 kmh 30.14 in1020.7 mb 0.00 in0.0 mm 0.00 in0.0 mm 0.00 in0.0 mm
08:50 PM 55.0°F12.8°C 50.3°F10.2°C 84% 0.1 mph NE0.2 kmh NE 1.6 mph2.6 kmh 30.14 in1020.7 mb 0.00 in0.0 mm 0.00 in0.0 mm 0.00 in0.0 mm
08:40 PM 55.2°F12.9°C 50.5°F10.3°C 84% 0.1 mph NNE0.2 kmh NNE 0.9 mph1.4 kmh 30.14 in1020.7 mb 0.00 in0.0 mm 0.00 in0.0 mm 0.00 in0.0 mm
08:30 PM 55.6°F13.1°C 50.8°F10.4°C 84% 0.2 mph NNE0.3 kmh NNE 1.8 mph2.9 kmh 30.14 in1020.7 mb 0.00 in0.0 mm 0.00 in0.0 mm 0.00 in0.0 mm
08:20 PM 55.8°F13.2°C 51.0°F10.6°C 84% 0.2 mph E0.3 kmh E 1.3 mph2.1 kmh 30.13 in1020.3 mb 0.00 in0.0 mm 0.00 in0.0 mm 0.00 in0.0 mm
08:10 PM 56.1°F13.4°C 51.0°F10.6°C 83% 0.4 mph E0.6 kmh E 1.8 mph2.9 kmh 30.13 in1020.3 mb 0.00 in0.0 mm 0.00 in0.0 mm 0.00 in0.0 mm
08:00 PM 56.5°F13.6°C 51.4°F10.8°C 83% Calm Calm 0.9 mph1.4 kmh 30.13 in1020.3 mb 0.00 in0.0 mm 0.00 in0.0 mm 0.00 in0.0 mm
07:50 PM 57.0°F13.9°C 51.6°F10.9°C 82% Calm Calm -- 30.13 in1020.3 mb 0.00 in0.0 mm 0.00 in0.0 mm 0.00 in0.0 mm
07:40 PM 57.4°F14.1°C 51.9°F11.1°C 82% 0.3 mph N0.5 kmh N 2.2 mph3.5 kmh 30.13 in1020.3 mb 0.00 in0.0 mm 0.00 in0.0 mm 0.00 in0.0 mm
07:30 PM 57.9°F14.4°C 52.5°F11.4°C 82% Calm Calm 0.7 mph1.1 kmh 30.14 in1020.7 mb 0.00 in0.0 mm 0.00 in0.0 mm 0.00 in0.0 mm
07:20 PM 58.3°F14.6°C 52.5°F11.4°C 81% 0.1 mph NE0.2 kmh NE 1.1 mph1.8 kmh 30.13 in1020.3 mb 0.00 in0.0 mm 0.00 in0.0 mm 0.00 in0.0 mm
07:10 PM 58.8°F14.9°C 52.7°F11.5°C 80% 0.2 mph NNE0.3 kmh NNE 1.3 mph2.1 kmh 30.12 in1020.0 mb 0.00 in0.0 mm 0.00 in0.0 mm 0.00 in0.0 mm
07:00 PM 59.5°F15.3°C 53.4°F11.9°C 80% Calm Calm -- 30.12 in1020.0 mb 0.00 in0.0 mm 0.00 in0.0 mm 0.00 in0.0 mm
06:50 PM 60.1°F15.6°C 53.5°F11.9°C 79% 0.2 mph NNE0.3 kmh NNE 1.8 mph2.9 kmh 30.12 in1020.0 mb 0.00 in0.0 mm 0.00 in0.0 mm 0.00 in0.0 mm
06:40 PM 60.8°F16.0°C 53.9°F12.2°C 78% 0.2 mph NE0.3 kmh NE 2.0 mph3.2 kmh 30.11 in1019.6 mb 0.00 in0.0 mm 0.00 in0.0 mm 0.00 in0.0 mm
06:30 PM 61.5°F16.4°C 54.6°F12.6°C 78% Calm Calm 0.7 mph1.1 kmh 30.11 in1019.6 mb 0.00 in0.0 mm 0.00 in0.0 mm 0.00 in0.0 mm
06:20 PM 62.4°F16.9°C 55.1°F12.8°C 77% 0.1 mph NNE0.2 kmh NNE 1.3 mph2.1 kmh 30.11 in1019.6 mb 0.00 in0.0 mm 0.00 in0.0 mm 0.00 in0.0 mm
06:10 PM 63.1°F17.3°C 55.4°F13.0°C 76% 0.2 mph NNE0.3 kmh NNE 2.0 mph3.2 kmh 30.11 in1019.6 mb 0.00 in0.0 mm 0.00 in0.0 mm 0.00 in0.0 mm
06:00 PM 63.9°F17.7°C 55.8°F13.2°C 75% Calm Calm 0.9 mph1.4 kmh 30.11 in1019.6 mb 0.00 in0.0 mm 0.00 in0.0 mm 0.00 in0.0 mm
05:50 PM 64.6°F18.1°C 56.5°F13.6°C 75% 0.1 mph NE0.2 kmh NE 1.6 mph2.6 kmh 30.10 in1019.3 mb 0.00 in0.0 mm 0.00 in0.0 mm 0.00 in0.0 mm
05:40 PM 65.3°F18.5°C 56.4°F13.6°C 73% 0.4 mph SE0.6 kmh SE 2.2 mph3.5 kmh 30.10 in1019.3 mb 0.00 in0.0 mm 0.00 in0.0 mm 0.00 in0.0 mm
05:30 PM 65.8°F18.8°C 56.6°F13.7°C 72% 0.1 mph S0.2 kmh S 1.3 mph2.1 kmh 30.09 in1019.0 mb 0.00 in0.0 mm 0.00 in0.0 mm 0.00 in0.0 mm
05:20 PM 66.0°F18.9°C 56.0°F13.3°C 70% 0.5 mph SW0.8 kmh SW 2.9 mph4.7 kmh 30.09 in1019.0 mb 0.00 in0.0 mm 0.00 in0.0 mm 0.00 in0.0 mm
05:10 PM 66.4°F19.1°C 57.1°F13.9°C 72% 1.2 mph SSW1.9 kmh SSW 4.0 mph6.4 kmh 30.09 in1019.0 mb 0.00 in0.0 mm 0.00 in0.0 mm 0.00 in0.0 mm
05:00 PM 67.5°F19.7°C 58.5°F14.7°C 73% 0.9 mph SE1.4 kmh SE 2.5 mph4.0 kmh 30.09 in1019.0 mb 0.00 in0.0 mm 0.00 in0.0 mm 0.00 in0.0 mm
04:50 PM 68.9°F20.5°C 57.1°F13.9°C 66% 0.5 mph WSW0.8 kmh WSW 2.2 mph3.5 kmh 30.09 in1019.0 mb 0.00 in0.0 mm 0.00 in0.0 mm 0.00 in0.0 mm
04:40 PM 69.4°F20.8°C 56.3°F13.5°C 63% 1.5 mph WSW2.4 kmh WSW 2.9 mph4.7 kmh 30.09 in1019.0 mb 0.00 in0.0 mm 0.00 in0.0 mm 0.00 in0.0 mm
04:30 PM 70.0°F21.1°C 56.4°F13.6°C 62% 2.0 mph SW3.2 kmh SW 4.7 mph7.6 kmh 30.09 in1019.0 mb 0.00 in0.0 mm 0.00 in0.0 mm 0.00 in0.0 mm
04:20 PM 70.2°F21.2°C 56.1°F13.4°C 61% 2.0 mph SW3.2 kmh SW 6.7 mph10.8 kmh 30.09 in1019.0 mb 0.00 in0.0 mm 0.00 in0.0 mm 0.00 in0.0 mm
04:10 PM 70.2°F21.2°C 54.7°F12.6°C 58% 2.1 mph SW3.4 kmh SW 4.7 mph7.6 kmh 30.09 in1019.0 mb 0.00 in0.0 mm 0.00 in0.0 mm 0.00 in0.0 mm
04:00 PM 70.3°F21.3°C 55.3°F12.9°C 59% 2.6 mph SSW4.2 kmh SSW 9.2 mph14.8 kmh 30.09 in1019.0 mb 0.00 in0.0 mm 0.00 in0.0 mm 0.00 in0.0 mm
03:50 PM 70.2°F21.2°C 53.2°F11.8°C 55% 2.2 mph S3.5 kmh S 8.3 mph13.4 kmh 30.08 in1018.6 mb 0.00 in0.0 mm 0.00 in0.0 mm 0.00 in0.0 mm
03:40 PM 70.7°F21.5°C 53.7°F12.1°C 55% 3.6 mph SW5.8 kmh SW 10.3 mph16.6 kmh 30.08 in1018.6 mb 0.00 in0.0 mm 0.00 in0.0 mm 0.00 in0.0 mm
03:30 PM 70.9°F21.6°C 52.4°F11.3°C 52% 2.9 mph SSW4.7 kmh SSW 7.4 mph11.9 kmh 30.08 in1018.6 mb 0.00 in0.0 mm 0.00 in0.0 mm 0.00 in0.0 mm
03:20 PM 71.1°F21.7°C 53.6°F12.0°C 54% 3.4 mph S5.5 kmh S 8.9 mph14.3 kmh 30.09 in1019.0 mb 0.00 in0.0 mm 0.00 in0.0 mm 0.00 in0.0 mm
03:10 PM 70.9°F21.6°C 52.9°F11.6°C 53% 3.5 mph SSW5.6 kmh SSW 9.2 mph14.8 kmh 30.09 in1019.0 mb 0.00 in0.0 mm 0.00 in0.0 mm 0.00 in0.0 mm
03:00 PM 70.5°F21.4°C 52.6°F11.4°C 53% 4.5 mph SSW7.2 kmh SSW 11.0 mph17.7 kmh 30.09 in1019.0 mb 0.00 in0.0 mm 0.00 in0.0 mm 0.00 in0.0 mm
02:50 PM 70.5°F21.4°C 53.6°F12.0°C 55% 2.3 mph S3.7 kmh S 5.4 mph8.7 kmh 30.08 in1018.6 mb 0.00 in0.0 mm 0.00 in0.0 mm 0.00 in0.0 mm
02:40 PM 70.3°F21.3°C 54.9°F12.7°C 58% 3.8 mph SW6.1 kmh SW 8.3 mph13.4 kmh 30.09 in1019.0 mb 0.00 in0.0 mm 0.00 in0.0 mm 0.00 in0.0 mm
02:30 PM 70.3°F21.3°C 53.9°F12.2°C 56% 3.0 mph S4.8 kmh S 9.2 mph14.8 kmh 30.09 in1019.0 mb 0.00 in0.0 mm 0.00 in0.0 mm 0.00 in0.0 mm
02:20 PM 70.3°F21.3°C 51.9°F11.1°C 52% 3.8 mph SSW6.1 kmh SSW 11.9 mph19.2 kmh 30.09 in1019.0 mb 0.00 in0.0 mm 0.00 in0.0 mm 0.00 in0.0 mm
02:10 PM 70.5°F21.4°C 52.6°F11.4°C 53% 4.6 mph SW7.4 kmh SW 9.8 mph15.8 kmh 30.09 in1019.0 mb 0.00 in0.0 mm 0.00 in0.0 mm 0.00 in0.0 mm
02:00 PM 70.2°F21.2°C 52.2°F11.2°C 53% 2.8 mph S4.5 kmh S 8.1 mph13.0 kmh 30.09 in1019.0 mb 0.00 in0.0 mm 0.00 in0.0 mm 0.00 in0.0 mm
01:50 PM 70.0°F21.1°C 53.6°F12.0°C 56% 4.0 mph SSW6.4 kmh SSW 10.5 mph16.9 kmh 30.09 in1019.0 mb 0.00 in0.0 mm 0.00 in0.0 mm 0.00 in0.0 mm
01:40 PM 70.0°F21.1°C 53.1°F11.7°C 55% 3.7 mph SSW6.0 kmh SSW 10.5 mph16.9 kmh 30.09 in1019.0 mb 0.00 in0.0 mm 0.00 in0.0 mm 0.00 in0.0 mm
01:30 PM 69.6°F20.9°C 53.2°F11.8°C 56% 4.3 mph SSW6.9 kmh SSW 11.9 mph19.2 kmh 30.09 in1019.0 mb 0.00 in0.0 mm 0.00 in0.0 mm 0.00 in0.0 mm
01:20 PM 69.6°F20.9°C 53.2°F11.8°C 56% 3.8 mph SSW6.1 kmh SSW 10.1 mph16.3 kmh 30.10 in1019.3 mb 0.00 in0.0 mm 0.00 in0.0 mm 0.00 in0.0 mm
01:10 PM 69.4°F20.8°C 54.9°F12.7°C 60% 3.4 mph SSW5.5 kmh SSW 8.1 mph13.0 kmh 30.10 in1019.3 mb 0.00 in0.0 mm 0.00 in0.0 mm 0.00 in0.0 mm
01:00 PM 68.9°F20.5°C 52.6°F11.4°C 56% 3.8 mph SSW6.1 kmh SSW 10.3 mph16.6 kmh 30.11 in1019.6 mb 0.00 in0.0 mm 0.00 in0.0 mm 0.00 in0.0 mm
12:50 PM 68.5°F20.3°C 54.1°F12.3°C 60% 4.2 mph SW6.8 kmh SW 10.7 mph17.2 kmh 30.10 in1019.3 mb 0.00 in0.0 mm 0.00 in0.0 mm 0.00 in0.0 mm
12:40 PM 68.2°F20.1°C 52.4°F11.3°C 57% 3.2 mph SSW5.1 kmh SSW 9.6 mph15.4 kmh 30.11 in1019.6 mb 0.00 in0.0 mm 0.00 in0.0 mm 0.00 in0.0 mm
12:30 PM 67.8°F19.9°C 53.0°F11.7°C 59% 2.6 mph S4.2 kmh S 9.6 mph15.4 kmh 30.11 in1019.6 mb 0.00 in0.0 mm 0.00 in0.0 mm 0.00 in0.0 mm
12:20 PM 67.3°F19.6°C 53.4°F11.9°C 61% 2.2 mph S3.5 kmh S 5.1 mph8.2 kmh 30.11 in1019.6 mb 0.00 in0.0 mm 0.00 in0.0 mm 0.00 in0.0 mm
12:10 PM 66.6°F19.2°C 53.1°F11.7°C 62% 2.4 mph SSW3.9 kmh SSW 5.4 mph8.7 kmh 30.11 in1019.6 mb 0.00 in0.0 mm 0.00 in0.0 mm 0.00 in0.0 mm
12:00 PM 66.0°F18.9°C 53.1°F11.7°C 63% 2.3 mph SW3.7 kmh SW 6.9 mph11.1 kmh 30.11 in1019.6 mb 0.00 in0.0 mm 0.00 in0.0 mm 0.00 in0.0 mm
11:50 AM 65.1°F18.4°C 54.3°F12.4°C 68% 1.7 mph SSW2.7 kmh SSW 4.5 mph7.2 kmh 30.12 in1020.0 mb 0.00 in0.0 mm 0.00 in0.0 mm 0.00 in0.0 mm
11:40 AM 64.6°F18.1°C 53.8°F12.1°C 68% 1.6 mph S2.6 kmh S 4.7 mph7.6 kmh 30.12 in1020.0 mb 0.00 in0.0 mm 0.00 in0.0 mm 0.00 in0.0 mm
11:30 AM 63.3°F17.4°C 52.6°F11.4°C 68% 1.0 mph S1.6 kmh S 5.8 mph9.3 kmh 30.13 in1020.3 mb 0.00 in0.0 mm 0.00 in0.0 mm 0.00 in0.0 mm
11:20 AM 62.4°F16.9°C 53.6°F12.0°C 73% 1.2 mph S1.9 kmh S 4.5 mph7.2 kmh 30.13 in1020.3 mb 0.00 in0.0 mm 0.00 in0.0 mm 0.00 in0.0 mm
11:10 AM 61.2°F16.2°C 53.5°F11.9°C 76% 1.0 mph SSW1.6 kmh SSW 3.6 mph5.8 kmh 30.13 in1020.3 mb 0.00 in0.0 mm 0.00 in0.0 mm 0.00 in0.0 mm
11:00 AM 60.1°F15.6°C 52.8°F11.6°C 77% 0.4 mph ESE0.6 kmh ESE 2.0 mph3.2 kmh 30.13 in1020.3 mb 0.00 in0.0 mm 0.00 in0.0 mm 0.00 in0.0 mm
10:50 AM 58.8°F14.9°C 53.0°F11.7°C 81% 0.5 mph NE0.8 kmh NE 2.0 mph3.2 kmh 30.14 in1020.7 mb 0.00 in0.0 mm 0.00 in0.0 mm 0.00 in0.0 mm
10:40 AM 58.3°F14.6°C 54.1°F12.3°C 86% 0.3 mph WSW0.5 kmh WSW 3.4 mph5.5 kmh 30.13 in1020.3 mb 0.00 in0.0 mm 0.00 in0.0 mm 0.00 in0.0 mm
10:30 AM 57.7°F14.3°C 53.9°F12.2°C 87% 0.5 mph WNW0.8 kmh WNW 2.5 mph4.0 kmh 30.13 in1020.3 mb 0.00 in0.0 mm 0.00 in0.0 mm 0.00 in0.0 mm
10:20 AM 57.0°F13.9°C 53.8°F12.1°C 89% 0.4 mph S0.6 kmh S 2.0 mph3.2 kmh 30.13 in1020.3 mb 0.00 in0.0 mm 0.00 in0.0 mm 0.00 in0.0 mm
10:10 AM 55.9°F13.3°C 52.7°F11.5°C 89% 0.3 mph NE0.5 kmh NE 2.5 mph4.0 kmh 30.13 in1020.3 mb 0.00 in0.0 mm 0.00 in0.0 mm 0.00 in0.0 mm
10:00 AM 55.2°F12.9°C 52.0°F11.1°C 89% 2.2 mph N3.5 kmh N 4.9 mph7.9 kmh 30.14 in1020.7 mb 0.00 in0.0 mm 0.00 in0.0 mm 0.00 in0.0 mm
09:50 AM 54.1°F12.3°C 51.6°F10.9°C 91% 2.5 mph NNE4.0 kmh NNE 5.1 mph8.2 kmh 30.14 in1020.7 mb 0.00 in0.0 mm 0.00 in0.0 mm 0.00 in0.0 mm
09:40 AM 53.4°F11.9°C 50.9°F10.5°C 91% 2.1 mph NNE3.4 kmh NNE 4.7 mph7.6 kmh 30.14 in1020.7 mb 0.00 in0.0 mm 0.00 in0.0 mm 0.00 in0.0 mm
09:30 AM 52.3°F11.3°C 50.1°F10.1°C 92% 1.2 mph NNE1.9 kmh NNE 3.6 mph5.8 kmh 30.14 in1020.7 mb 0.00 in0.0 mm 0.00 in0.0 mm 0.00 in0.0 mm
09:20 AM 51.4°F10.8°C 49.2°F9.6°C 92% 3.0 mph NNE4.8 kmh NNE 9.2 mph14.8 kmh 30.14 in1020.7 mb 0.00 in0.0 mm 0.00 in0.0 mm 0.00 in0.0 mm
09:10 AM 50.5°F10.3°C 48.3°F9.1°C 92% 3.9 mph NNE6.3 kmh NNE 7.8 mph12.6 kmh 30.14 in1020.7 mb 0.00 in0.0 mm 0.00 in0.0 mm 0.00 in0.0 mm
09:00 AM 49.5°F9.7°C 47.2°F8.4°C 92% 3.7 mph NNE6.0 kmh NNE 8.3 mph13.4 kmh 30.14 in1020.7 mb 0.00 in0.0 mm 0.00 in0.0 mm 0.00 in0.0 mm
08:50 AM 48.6°F9.2°C 46.3°F7.9°C 92% 2.1 mph ENE3.4 kmh ENE 6.9 mph11.1 kmh 30.14 in1020.7 mb 0.00 in0.0 mm 0.00 in0.0 mm 0.00 in0.0 mm
08:40 AM 47.8°F8.8°C 45.9°F7.7°C 93% 0.8 mph E1.3 kmh E 3.6 mph5.8 kmh 30.14 in1020.7 mb 0.00 in0.0 mm 0.00 in0.0 mm 0.00 in0.0 mm
08:30 AM 47.1°F8.4°C 44.9°F7.2°C 92% 0.8 mph E1.3 kmh E 3.4 mph5.5 kmh 30.14 in1020.7 mb 0.00 in0.0 mm 0.00 in0.0 mm 0.00 in0.0 mm
08:20 AM 46.8°F8.2°C 44.6°F7.0°C 92% 1.4 mph E2.3 kmh E 3.1 mph5.0 kmh 30.14 in1020.7 mb 0.00 in0.0 mm 0.00 in0.0 mm 0.00 in0.0 mm
08:10 AM 46.6°F8.1°C 44.4°F6.9°C 92% 1.6 mph E2.6 kmh E 4.3 mph6.9 kmh 30.14 in1020.7 mb 0.00 in0.0 mm 0.00 in0.0 mm 0.00 in0.0 mm
08:00 AM 46.4°F8.0°C 44.2°F6.8°C 92% 1.9 mph E3.1 kmh E 4.9 mph7.9 kmh 30.14 in1020.7 mb 0.00 in0.0 mm 0.00 in0.0 mm 0.00 in0.0 mm
07:50 AM 46.2°F7.9°C 44.0°F6.7°C 92% 2.5 mph ENE4.0 kmh ENE 8.1 mph13.0 kmh 30.14 in1020.7 mb 0.00 in0.0 mm 0.00 in0.0 mm 0.00 in0.0 mm
07:40 AM 46.2°F7.9°C 44.0°F6.7°C 92% 3.2 mph ENE5.1 kmh ENE 8.5 mph13.7 kmh 30.14 in1020.7 mb 0.00 in0.0 mm 0.00 in0.0 mm 0.00 in0.0 mm
07:30 AM 46.2°F7.9°C 44.0°F6.7°C 92% 2.1 mph ENE3.4 kmh ENE 6.9 mph11.1 kmh 30.13 in1020.3 mb 0.00 in0.0 mm 0.00 in0.0 mm 0.00 in0.0 mm
07:20 AM 46.2°F7.9°C 44.0°F6.7°C 92% 2.9 mph NE4.7 kmh NE 8.5 mph13.7 kmh 30.13 in1020.3 mb 0.00 in0.0 mm 0.00 in0.0 mm 0.00 in0.0 mm
07:10 AM 46.2°F7.9°C 44.0°F6.7°C 92% 2.2 mph ENE3.5 kmh ENE 5.1 mph8.2 kmh 30.13 in1020.3 mb 0.00 in0.0 mm 0.00 in0.0 mm 0.00 in0.0 mm
07:00 AM 46.0°F7.8°C 43.8°F6.6°C 92% 2.5 mph ENE4.0 kmh ENE 6.0 mph9.7 kmh 30.13 in1020.3 mb 0.00 in0.0 mm 0.00 in0.0 mm 0.00 in0.0 mm
06:50 AM 46.2°F7.9°C 44.0°F6.7°C 92% 2.1 mph NE3.4 kmh NE 5.8 mph9.3 kmh 30.13 in1020.3 mb 0.00 in0.0 mm 0.00 in0.0 mm 0.00 in0.0 mm
06:40 AM 46.2°F7.9°C 44.0°F6.7°C 92% 1.3 mph NE2.1 kmh NE 5.4 mph8.7 kmh 30.13 in1020.3 mb 0.00 in0.0 mm 0.00 in0.0 mm 0.00 in0.0 mm
06:30 AM 46.2°F7.9°C 44.0°F6.7°C 92% 1.4 mph ENE2.3 kmh ENE 3.8 mph6.1 kmh 30.13 in1020.3 mb 0.00 in0.0 mm 0.00 in0.0 mm 0.00 in0.0 mm
06:20 AM 46.2°F7.9°C 44.0°F6.7°C 92% 2.2 mph ENE3.5 kmh ENE 10.5 mph16.9 kmh 30.13 in1020.3 mb 0.00 in0.0 mm 0.00 in0.0 mm 0.00 in0.0 mm
06:10 AM 46.2°F7.9°C 44.0°F6.7°C 92% 3.1 mph NE5.0 kmh NE 7.6 mph12.2 kmh 30.12 in1020.0 mb 0.00 in0.0 mm 0.00 in0.0 mm 0.00 in0.0 mm
06:00 AM 46.4°F8.0°C 44.2°F6.8°C 92% 2.5 mph NE4.0 kmh NE 5.4 mph8.7 kmh 30.11 in1019.6 mb 0.00 in0.0 mm 0.00 in0.0 mm 0.00 in0.0 mm
05:50 AM 46.6°F8.1°C 44.4°F6.9°C 92% 2.7 mph ENE4.3 kmh ENE 5.6 mph9.0 kmh 30.11 in1019.6 mb 0.00 in0.0 mm 0.00 in0.0 mm 0.00 in0.0 mm
05:40 AM 46.6°F8.1°C 44.4°F6.9°C 92% 2.6 mph NE4.2 kmh NE 9.6 mph15.4 kmh 30.12 in1020.0 mb 0.00 in0.0 mm 0.00 in0.0 mm 0.00 in0.0 mm
05:30 AM 46.6°F8.1°C 44.4°F6.9°C 92% 3.2 mph NE5.1 kmh NE 11.4 mph18.3 kmh 30.11 in1019.6 mb 0.00 in0.0 mm 0.00 in0.0 mm 0.00 in0.0 mm
05:20 AM 46.8°F8.2°C 44.6°F7.0°C 92% 2.2 mph ENE3.5 kmh ENE 8.3 mph13.4 kmh 30.11 in1019.6 mb 0.00 in0.0 mm 0.00 in0.0 mm 0.00 in0.0 mm
05:10 AM 46.9°F8.3°C 44.7°F7.1°C 92% 2.0 mph ENE3.2 kmh ENE 5.6 mph9.0 kmh 30.11 in1019.6 mb 0.00 in0.0 mm 0.00 in0.0 mm 0.00 in0.0 mm
05:00 AM 46.9°F8.3°C 44.7°F7.1°C 92% 2.1 mph NE3.4 kmh NE 8.9 mph14.3 kmh 30.12 in1020.0 mb 0.00 in0.0 mm 0.00 in0.0 mm 0.00 in0.0 mm
04:50 AM 46.9°F8.3°C 44.7°F7.1°C 92% 2.4 mph NE3.9 kmh NE 7.2 mph11.6 kmh 30.12 in1020.0 mb 0.00 in0.0 mm 0.00 in0.0 mm 0.00 in0.0 mm
04:40 AM 47.1°F8.4°C 44.9°F7.2°C 92% 2.7 mph ENE4.3 kmh ENE 7.2 mph11.6 kmh 30.12 in1020.0 mb 0.00 in0.0 mm 0.00 in0.0 mm 0.00 in0.0 mm
04:30 AM 47.1°F8.4°C 44.9°F7.2°C 92% 1.9 mph ENE3.1 kmh ENE 5.1 mph8.2 kmh 30.12 in1020.0 mb 0.00 in0.0 mm 0.00 in0.0 mm 0.00 in0.0 mm
04:20 AM 47.3°F8.5°C 45.1°F7.3°C 92% 2.7 mph NE4.3 kmh NE 8.9 mph14.3 kmh 30.12 in1020.0 mb 0.00 in0.0 mm 0.00 in0.0 mm 0.00 in0.0 mm
04:10 AM 47.3°F8.5°C 45.1°F7.3°C 92% 2.5 mph E4.0 kmh E 4.9 mph7.9 kmh 30.12 in1020.0 mb 0.00 in0.0 mm 0.00 in0.0 mm 0.00 in0.0 mm
04:00 AM 47.5°F8.6°C 45.3°F7.4°C 92% 2.2 mph ENE3.5 kmh ENE 5.1 mph8.2 kmh 30.12 in1020.0 mb 0.00 in0.0 mm 0.00 in0.0 mm 0.00 in0.0 mm
03:50 AM 47.5°F8.6°C 45.3°F7.4°C 92% 2.9 mph ENE4.7 kmh ENE 6.5 mph10.5 kmh 30.12 in1020.0 mb 0.00 in0.0 mm 0.00 in0.0 mm 0.00 in0.0 mm
03:40 AM 47.5°F8.6°C 45.3°F7.4°C 92% 2.2 mph ENE3.5 kmh ENE 5.8 mph9.3 kmh 30.13 in1020.3 mb 0.00 in0.0 mm 0.00 in0.0 mm 0.00 in0.0 mm
03:30 AM 47.8°F8.8°C 45.6°F7.6°C 92% 2.3 mph ENE3.7 kmh ENE 6.9 mph11.1 kmh 30.12 in1020.0 mb 0.00 in0.0 mm 0.00 in0.0 mm 0.00 in0.0 mm
03:20 AM 47.8°F8.8°C 45.6°F7.6°C 92% 1.8 mph ENE2.9 kmh ENE 6.5 mph10.5 kmh 30.12 in1020.0 mb 0.00 in0.0 mm 0.00 in0.0 mm 0.00 in0.0 mm
03:10 AM 47.8°F8.8°C 45.6°F7.6°C 92% 2.1 mph ENE3.4 kmh ENE 3.8 mph6.1 kmh 30.12 in1020.0 mb 0.00 in0.0 mm 0.00 in0.0 mm 0.00 in0.0 mm
03:00 AM 47.8°F8.8°C 45.3°F7.4°C 91% 3.0 mph NE4.8 kmh NE 6.5 mph10.5 kmh 30.13 in1020.3 mb 0.00 in0.0 mm 0.00 in0.0 mm 0.00 in0.0 mm
02:50 AM 47.8°F8.8°C 45.3°F7.4°C 91% 3.9 mph ENE6.3 kmh ENE 8.9 mph14.3 kmh 30.13 in1020.3 mb 0.00 in0.0 mm 0.00 in0.0 mm 0.00 in0.0 mm
02:40 AM 48.0°F8.9°C 45.5°F7.5°C 91% 2.8 mph NE4.5 kmh NE 6.3 mph10.1 kmh 30.13 in1020.3 mb 0.00 in0.0 mm 0.00 in0.0 mm 0.00 in0.0 mm
02:30 AM 48.0°F8.9°C 45.5°F7.5°C 91% 3.1 mph ENE5.0 kmh ENE 7.4 mph11.9 kmh 30.12 in1020.0 mb 0.00 in0.0 mm 0.00 in0.0 mm 0.00 in0.0 mm
02:20 AM 48.0°F8.9°C 45.5°F7.5°C 91% 3.7 mph NE6.0 kmh NE 9.8 mph15.8 kmh 30.13 in1020.3 mb 0.00 in0.0 mm 0.00 in0.0 mm 0.00 in0.0 mm
02:10 AM 48.4°F9.1°C 45.9°F7.7°C 91% 3.0 mph ENE4.8 kmh ENE 7.2 mph11.6 kmh 30.13 in1020.3 mb 0.00 in0.0 mm 0.00 in0.0 mm 0.00 in0.0 mm
02:00 AM 48.4°F9.1°C 45.9°F7.7°C 91% 2.9 mph E4.7 kmh E 7.8 mph12.6 kmh 30.13 in1020.3 mb 0.00 in0.0 mm 0.00 in0.0 mm 0.00 in0.0 mm
01:50 AM 48.4°F9.1°C 45.9°F7.7°C 91% 2.9 mph ENE4.7 kmh ENE 7.6 mph12.2 kmh 30.13 in1020.3 mb 0.00 in0.0 mm 0.00 in0.0 mm 0.00 in0.0 mm
01:40 AM 48.6°F9.2°C 46.1°F7.8°C 91% 3.5 mph ENE5.6 kmh ENE 6.7 mph10.8 kmh 30.13 in1020.3 mb 0.00 in0.0 mm 0.00 in0.0 mm 0.00 in0.0 mm
01:30 AM 48.7°F9.3°C 46.2°F7.9°C 91% 2.7 mph ENE4.3 kmh ENE 7.8 mph12.6 kmh 30.13 in1020.3 mb 0.00 in0.0 mm 0.00 in0.0 mm 0.00 in0.0 mm
01:20 AM 48.9°F9.4°C 46.4°F8.0°C 91% 3.3 mph ENE5.3 kmh ENE 7.4 mph11.9 kmh 30.13 in1020.3 mb 0.00 in0.0 mm 0.00 in0.0 mm 0.00 in0.0 mm
01:10 AM 49.1°F9.5°C 46.6°F8.1°C 91% 3.1 mph ENE5.0 kmh ENE 5.1 mph8.2 kmh 30.13 in1020.3 mb 0.00 in0.0 mm 0.00 in0.0 mm 0.00 in0.0 mm
01:00 AM 49.3°F9.6°C 46.8°F8.2°C 91% 2.7 mph ENE4.3 kmh ENE 6.0 mph9.7 kmh 30.14 in1020.7 mb 0.00 in0.0 mm 0.00 in0.0 mm 0.00 in0.0 mm
12:50 AM 49.5°F9.7°C 46.6°F8.1°C 90% 2.6 mph ENE4.2 kmh ENE 5.1 mph8.2 kmh 30.14 in1020.7 mb 0.00 in0.0 mm 0.00 in0.0 mm 0.00 in0.0 mm
12:40 AM 49.6°F9.8°C 46.8°F8.2°C 90% 3.3 mph NE5.3 kmh NE 7.2 mph11.6 kmh 30.14 in1020.7 mb 0.00 in0.0 mm 0.00 in0.0 mm 0.00 in0.0 mm
12:30 AM 49.8°F9.9°C 47.0°F8.3°C 90% 2.8 mph ENE4.5 kmh ENE 6.9 mph11.1 kmh 30.14 in1020.7 mb 0.00 in0.0 mm 0.00 in0.0 mm 0.00 in0.0 mm
12:20 AM 50.0°F10.0°C 47.2°F8.4°C 90% 2.3 mph NE3.7 kmh NE 6.3 mph10.1 kmh 30.13 in1020.3 mb 0.00 in0.0 mm 0.00 in0.0 mm 0.00 in0.0 mm
12:10 AM 50.4°F10.2°C 47.5°F8.6°C 90% 2.0 mph E3.2 kmh E 5.4 mph8.7 kmh 30.13 in1020.3 mb 0.00 in0.0 mm 0.00 in0.0 mm 0.00 in0.0 mm
12:00 AM 50.5°F10.3°C 47.7°F8.7°C 90% 2.7 mph ENE4.3 kmh ENE 5.8 mph9.3 kmh 30.13 in1020.3 mb 0.00 in0.0 mm 0.00 in0.0 mm 0.00 in0.0 mm